Terminal Aerodrome Forecast
Issued by NWS

Home | Current Version | Previous Version | Text Only | Print | Product List | Glossary On
Versions: 1 2 3 4 5 6 7 8 9 10 11 12 13 14 15 16 17 18 19 20
303
FTUS42 KTBW 061138
TAFPIE
TAF
KPIE 061138Z 0612/0712 20016G26KT P6SM VCSH SCT009 BKN050
      TEMPO 0612/0616 5SM SHRA BKN010
     FM061600 23016G28KT 6SM -SHRA VCTS SCT015CB OVC025
      TEMPO 0616/0619 VRB20G30KT 2SM +TSRA BKN015CB
     FM062000 25015G24KT P6SM -SHRA SCT015 OVC025
     FM070100 27005KT P6SM SCT015 BKN030 OVC050=

USA.gov is the U.S. government's official web portal to all federal, state and local government web resources and services.